createdAt,value
2022-08-25T00:00:27.644Z,14.17
2022-08-25T00:02:57.764Z,14.14
2022-08-25T00:05:33.330Z,14.10
2022-08-25T00:08:06.158Z,14.08
2022-08-25T00:10:40.009Z,14.06
2022-08-25T00:13:11.433Z,14.04
2022-08-25T00:15:41.381Z,14.00
2022-08-25T00:18:14.792Z,13.97
2022-08-25T00:20:50.433Z,13.95
2022-08-25T00:23:20.852Z,13.92
2022-08-25T00:25:50.845Z,13.89
2022-08-25T00:28:22.071Z,13.83
2022-08-25T00:30:52.315Z,13.80
2022-08-25T00:33:21.873Z,13.80
2022-08-25T00:35:52.203Z,13.77
2022-08-25T00:38:22.023Z,13.74
2022-08-25T00:41:05.861Z,13.75
2022-08-25T00:43:50.944Z,13.70
2022-08-25T00:46:25.520Z,13.69
2022-08-25T00:49:02.146Z,13.65
2022-08-25T00:51:42.957Z,13.63
2022-08-25T00:54:20.609Z,13.61
2022-08-25T00:56:52.505Z,13.58
2022-08-25T00:59:26.363Z,13.56
2022-08-25T01:01:57.628Z,13.57
2022-08-25T01:04:27.934Z,13.56
2022-08-25T01:06:59.439Z,13.53
2022-08-25T01:09:32.481Z,13.50
2022-08-25T01:12:02.469Z,13.48
2022-08-25T01:14:35.859Z,13.46
2022-08-25T01:17:17.317Z,13.46
2022-08-25T01:19:50.602Z,13.45
2022-08-25T01:22:21.673Z,13.44
2022-08-25T01:25:01.106Z,13.44
2022-08-25T01:27:30.767Z,13.42
2022-08-25T01:30:00.400Z,13.41
2022-08-25T01:32:30.108Z,13.41
2022-08-25T01:34:59.681Z,13.39
2022-08-25T01:37:30.638Z,13.37
2022-08-25T01:40:00.311Z,13.36
2022-08-25T01:42:55.598Z,13.37
2022-08-25T01:45:25.621Z,13.35
2022-08-25T01:47:58.344Z,13.33
2022-08-25T01:50:29.389Z,13.31
2022-08-25T01:53:07.084Z,13.30
2022-08-25T01:55:52.869Z,13.30
2022-08-25T01:58:26.726Z,13.24
2022-08-25T02:01:01.570Z,13.22
2022-08-25T02:03:32.477Z,13.18
2022-08-25T02:06:04.310Z,13.14
2022-08-25T02:08:36.472Z,13.13
2022-08-25T02:11:06.771Z,13.10
2022-08-25T02:13:36.293Z,13.09
2022-08-25T02:16:06.740Z,13.07
2022-08-25T02:18:36.980Z,13.06
2022-08-25T02:21:07.041Z,13.04
2022-08-25T02:23:37.984Z,13.02
2022-08-25T02:26:07.484Z,13.00
2022-08-25T02:28:38.111Z,12.97
2022-08-25T02:31:08.180Z,12.92
2022-08-25T02:33:37.724Z,12.91
2022-08-25T02:36:08.490Z,12.87
2022-08-25T02:38:40.747Z,12.81
2022-08-25T02:41:14.581Z,12.79
2022-08-25T02:43:46.722Z,12.76
2022-08-25T02:46:19.823Z,12.73
2022-08-25T02:48:51.786Z,12.71
2022-08-25T02:51:23.555Z,12.70
2022-08-25T02:53:54.459Z,12.67
2022-08-25T02:56:25.716Z,12.64
2022-08-25T02:58:55.702Z,12.62
2022-08-25T03:01:28.777Z,12.62
2022-08-25T03:03:59.909Z,12.59
2022-08-25T03:06:29.862Z,12.58
2022-08-25T03:09:01.410Z,12.55
2022-08-25T03:11:40.470Z,12.53
2022-08-25T03:14:11.134Z,12.50
2022-08-25T03:16:42.891Z,12.48
2022-08-25T03:19:16.709Z,12.45
2022-08-25T03:21:46.783Z,12.45
2022-08-25T03:24:17.732Z,12.46
2022-08-25T03:26:55.941Z,12.46
2022-08-25T03:29:29.600Z,12.49
2022-08-25T03:32:00.660Z,12.49
2022-08-25T03:34:31.572Z,12.49
2022-08-25T03:37:01.111Z,12.47
2022-08-25T03:39:32.070Z,12.46
2022-08-25T03:42:04.158Z,12.47
2022-08-25T03:44:33.680Z,12.47
2022-08-25T03:47:03.317Z,12.48
2022-08-25T03:49:32.804Z,12.46
2022-08-25T03:52:04.560Z,12.42
2022-08-25T03:54:35.377Z,12.40
2022-08-25T03:57:06.154Z,12.39
2022-08-25T03:59:38.317Z,12.37
2022-08-25T04:02:08.580Z,12.36
2022-08-25T04:04:38.090Z,12.38
2022-08-25T04:07:08.155Z,12.37
2022-08-25T04:09:39.736Z,12.38
2022-08-25T04:12:10.184Z,12.38
2022-08-25T04:14:39.657Z,12.39
2022-08-25T04:17:09.520Z,12.41
2022-08-25T04:19:39.274Z,12.40
2022-08-25T04:22:08.883Z,12.41
2022-08-25T04:24:39.967Z,12.41
2022-08-25T04:27:09.658Z,12.42
2022-08-25T04:29:39.428Z,12.42
2022-08-25T04:32:09.101Z,12.42
2022-08-25T04:34:39.037Z,12.42
2022-08-25T04:37:09.046Z,12.42
2022-08-25T04:39:40.050Z,12.44
2022-08-25T04:42:09.608Z,12.44
2022-08-25T04:44:39.381Z,12.46
2022-08-25T04:47:09.686Z,12.49
2022-08-25T04:49:39.682Z,12.51
2022-08-25T04:52:32.413Z,12.53
2022-08-25T04:55:03.533Z,12.54
2022-08-25T04:57:33.025Z,12.56
2022-08-25T05:00:02.558Z,12.56
2022-08-25T05:02:32.762Z,12.59
2022-08-25T05:05:04.048Z,12.60
2022-08-25T05:07:33.535Z,12.62
2022-08-25T05:10:04.924Z,12.66
2022-08-25T05:12:34.552Z,12.70
2022-08-25T05:15:26.902Z,12.75
2022-08-25T05:17:57.561Z,12.82
2022-08-25T05:20:27.337Z,12.92
2022-08-25T05:22:56.812Z,12.99
2022-08-25T05:25:27.653Z,13.08
2022-08-25T05:27:57.452Z,13.19
2022-08-25T05:30:26.990Z,13.31
2022-08-25T05:32:57.206Z,13.43
2022-08-25T05:35:26.793Z,13.55
2022-08-25T05:37:57.316Z,13.66
2022-08-25T05:40:28.420Z,13.75
2022-08-25T05:42:57.995Z,13.85
2022-08-25T05:45:27.720Z,13.95
2022-08-25T05:47:57.997Z,14.05
2022-08-25T05:50:27.670Z,14.18
2022-08-25T05:52:57.127Z,14.26
2022-08-25T05:55:28.044Z,14.36
2022-08-25T05:57:57.544Z,14.47
2022-08-25T06:00:27.016Z,14.56
2022-08-25T06:02:55.529Z,14.64
2022-08-25T06:05:25.335Z,14.71
2022-08-25T06:07:54.925Z,14.81
2022-08-25T06:10:24.663Z,14.88
2022-08-25T06:12:56.766Z,14.97
2022-08-25T06:15:28.837Z,15.06
2022-08-25T06:18:05.380Z,15.17
2022-08-25T06:20:35.139Z,15.26
2022-08-25T06:23:04.622Z,15.36
2022-08-25T06:25:34.269Z,15.45
2022-08-25T06:28:05.677Z,15.55
2022-08-25T06:30:35.519Z,15.64
2022-08-25T06:33:05.353Z,15.73
2022-08-25T06:35:34.935Z,15.83
2022-08-25T06:38:05.172Z,15.91
2022-08-25T06:40:34.896Z,15.99
2022-08-25T06:43:08.746Z,16.08
2022-08-25T06:45:38.261Z,16.16
2022-08-25T06:48:07.937Z,16.27
2022-08-25T06:50:39.670Z,16.36
2022-08-25T06:53:09.392Z,16.46
2022-08-25T06:55:39.330Z,16.53
2022-08-25T06:58:11.324Z,16.62
2022-08-25T07:00:41.047Z,16.71
2022-08-25T07:03:10.572Z,16.83
2022-08-25T07:05:43.706Z,16.92
2022-08-25T07:08:13.436Z,17.03
2022-08-25T07:10:42.904Z,17.12
2022-08-25T07:13:19.298Z,17.21
2022-08-25T07:15:48.851Z,17.30
2022-08-25T07:18:18.389Z,17.41
2022-08-25T07:20:48.274Z,17.52
2022-08-25T07:23:18.101Z,17.64
2022-08-25T07:25:47.881Z,17.76
2022-08-25T07:28:19.889Z,17.90
2022-08-25T07:30:52.252Z,18.01
2022-08-25T07:33:21.800Z,18.18
2022-08-25T07:35:50.918Z,18.30
2022-08-25T07:38:21.172Z,18.44
2022-08-25T07:40:54.702Z,18.56
2022-08-25T07:43:27.933Z,18.66
2022-08-25T07:45:57.426Z,18.77
2022-08-25T07:48:26.955Z,18.87
2022-08-25T07:51:01.092Z,18.98
2022-08-25T07:53:32.823Z,19.10
2022-08-25T07:58:39.216Z,19.38
2022-08-25T08:01:15.677Z,19.49
2022-08-25T08:03:50.452Z,19.57
2022-08-25T08:06:25.350Z,19.67
2022-08-25T08:08:58.004Z,19.79
2022-08-25T08:11:33.067Z,19.86
2022-08-25T08:14:05.159Z,19.96
2022-08-25T08:16:35.132Z,20.10
2022-08-25T08:19:05.325Z,20.27
2022-08-25T08:21:37.789Z,20.43
2022-08-25T08:24:24.895Z,20.60
2022-08-25T08:26:59.295Z,20.74
2022-08-25T08:29:30.404Z,20.86
2022-08-25T08:32:01.347Z,20.99
2022-08-25T08:34:31.200Z,21.08
2022-08-25T08:37:02.478Z,21.23
2022-08-25T08:39:32.197Z,21.41
2022-08-25T08:42:24.022Z,21.57
2022-08-25T08:45:20.446Z,21.74
2022-08-25T08:48:09.979Z,21.88
2022-08-25T08:50:57.334Z,22.01
2022-08-25T08:53:37.127Z,22.10
2022-08-25T08:56:12.403Z,22.18
2022-08-25T08:58:50.076Z,22.36
2022-08-25T09:01:29.614Z,22.50
2022-08-25T09:04:09.773Z,22.69
2022-08-25T09:06:44.340Z,22.87
2022-08-25T09:09:21.097Z,23.04
2022-08-25T09:12:04.416Z,23.11
2022-08-25T09:14:47.481Z,23.25
2022-08-25T09:17:45.356Z,23.44
2022-08-25T09:20:57.682Z,23.60
2022-08-25T09:23:47.647Z,23.76
2022-08-25T09:26:31.007Z,23.92
2022-08-25T09:29:16.183Z,24.04
2022-08-25T09:31:48.795Z,24.20
2022-08-25T09:34:24.267Z,24.44
2022-08-25T09:36:53.721Z,24.51
2022-08-25T09:39:23.422Z,24.67
2022-08-25T09:41:57.339Z,24.84
2022-08-25T09:44:36.109Z,24.95
2022-08-25T09:47:14.746Z,25.10
2022-08-25T09:49:49.132Z,25.26
2022-08-25T09:52:34.689Z,25.37
2022-08-25T09:55:34.213Z,25.52
2022-08-25T09:58:22.233Z,25.62
2022-08-25T10:01:24.966Z,25.74
2022-08-25T10:04:02.648Z,25.88
2022-08-25T10:06:45.705Z,26.03
2022-08-25T10:09:30.445Z,26.14
2022-08-25T10:12:04.926Z,26.36
2022-08-25T10:15:29.607Z,26.44
2022-08-25T10:18:25.915Z,26.52
2022-08-25T10:21:18.958Z,26.68
2022-08-25T10:23:55.913Z,26.81
2022-08-25T10:26:56.861Z,26.93
2022-08-25T10:29:54.125Z,27.08
2022-08-25T10:32:38.224Z,27.18
2022-08-25T10:35:15.729Z,27.34
2022-08-25T10:38:05.996Z,27.42
2022-08-25T10:40:48.723Z,27.56
2022-08-25T10:43:31.932Z,27.72
2022-08-25T10:46:16.220Z,27.83
2022-08-25T10:49:00.021Z,27.84
2022-08-25T10:51:56.957Z,27.93
2022-08-25T10:54:45.062Z,28.07
2022-08-25T10:57:37.525Z,28.23
2022-08-25T11:00:13.337Z,28.39
2022-08-25T11:03:19.098Z,28.47
2022-08-25T11:05:57.117Z,28.61
2022-08-25T11:08:37.857Z,28.78
2022-08-25T11:11:14.333Z,28.89
2022-08-25T11:13:54.260Z,28.96
2022-08-25T11:16:37.549Z,29.11
2022-08-25T11:19:18.024Z,29.28
2022-08-25T11:21:57.249Z,29.41
2022-08-25T11:24:48.242Z,29.55
2022-08-25T11:27:32.433Z,29.64
2022-08-25T11:30:09.634Z,29.83
2022-08-25T11:32:42.012Z,29.97
2022-08-25T11:35:15.144Z,29.96
2022-08-25T11:38:01.944Z,29.83
2022-08-25T11:40:54.426Z,29.87
2022-08-25T11:43:48.829Z,30.12
2022-08-25T11:46:45.527Z,30.38
2022-08-25T11:49:49.791Z,30.42
2022-08-25T11:52:53.948Z,30.54
2022-08-25T11:55:46.633Z,30.64
2022-08-25T11:58:41.640Z,30.74
2022-08-25T12:01:47.224Z,30.92
2022-08-25T12:04:44.730Z,31.07
2022-08-25T12:07:26.737Z,31.07
2022-08-25T12:10:20.849Z,31.10
2022-08-25T12:13:43.834Z,31.20
2022-08-25T12:16:44.461Z,31.44
2022-08-25T12:19:49.627Z,31.58
2022-08-25T12:22:55.203Z,31.84
2022-08-25T12:25:47.209Z,31.99
2022-08-25T12:28:43.303Z,32.18
2022-08-25T12:31:37.928Z,32.19
2022-08-25T12:34:36.399Z,32.10
2022-08-25T12:37:14.708Z,31.99
2022-08-25T12:40:01.325Z,32.10
2022-08-25T12:42:36.801Z,32.37
2022-08-25T12:45:37.177Z,32.54
2022-08-25T12:48:57.010Z,32.50
2022-08-25T12:51:30.138Z,32.34
2022-08-25T12:54:19.045Z,31.98
2022-08-25T12:56:58.640Z,31.74
2022-08-25T12:59:39.186Z,31.87
2022-08-25T13:02:39.785Z,32.21
2022-08-25T13:06:09.259Z,32.46
2022-08-25T13:10:00.957Z,32.71
2022-08-25T13:12:41.086Z,33.14
2022-08-25T13:15:17.996Z,33.35
2022-08-25T13:17:47.488Z,33.58
2022-08-25T13:20:25.405Z,33.78
2022-08-25T13:23:06.521Z,33.75
2022-08-25T13:25:49.332Z,33.94
2022-08-25T13:28:30.476Z,33.87
2022-08-25T13:31:08.020Z,33.80
2022-08-25T13:33:38.489Z,33.56
2022-08-25T13:36:35.014Z,33.43
2022-08-25T13:39:16.008Z,33.85
2022-08-25T13:41:55.488Z,33.54
2022-08-25T13:44:29.125Z,33.27
2022-08-25T13:47:33.581Z,33.55
2022-08-25T13:50:22.854Z,33.77
2022-08-25T13:52:59.444Z,33.56
2022-08-25T13:55:38.291Z,33.71
2022-08-25T13:58:39.217Z,34.08
2022-08-25T14:01:47.141Z,34.31
2022-08-25T14:04:32.472Z,34.50
2022-08-25T14:07:33.713Z,34.63
2022-08-25T14:10:09.802Z,34.89
2022-08-25T14:12:46.198Z,35.09
2022-08-25T14:15:33.408Z,35.31
2022-08-25T14:18:09.542Z,35.52
2022-08-25T14:20:50.345Z,35.54
2022-08-25T14:23:24.132Z,35.49
2022-08-25T14:25:56.631Z,35.76
2022-08-25T14:28:30.280Z,35.81
2022-08-25T14:31:06.607Z,35.95
2022-08-25T14:33:44.601Z,36.06
2022-08-25T14:36:20.950Z,35.75
2022-08-25T14:38:54.864Z,35.37
2022-08-25T14:41:26.490Z,35.43
2022-08-25T14:43:55.954Z,35.47
2022-08-25T14:46:32.407Z,35.59
2022-08-25T14:49:06.470Z,35.74
2022-08-25T14:51:37.085Z,35.88
2022-08-25T14:54:12.309Z,35.85
2022-08-25T14:56:42.991Z,35.93
2022-08-25T14:59:13.380Z,35.69
2022-08-25T15:01:44.789Z,35.40
2022-08-25T15:04:18.582Z,35.12
2022-08-25T15:06:56.814Z,34.48
2022-08-25T15:09:33.321Z,33.79
2022-08-25T15:12:03.533Z,33.56
2022-08-25T15:14:34.316Z,33.51
2022-08-25T15:17:05.225Z,33.52
2022-08-25T15:19:43.422Z,33.57
2022-08-25T15:22:15.264Z,33.72
2022-08-25T15:24:44.733Z,33.78
2022-08-25T15:27:15.142Z,33.99
2022-08-25T15:29:44.668Z,34.01
2022-08-25T15:32:15.860Z,33.97
2022-08-25T15:34:47.514Z,33.80
2022-08-25T15:37:18.804Z,33.71
2022-08-25T15:39:49.131Z,33.61
2022-08-25T15:42:19.345Z,33.47
2022-08-25T15:44:53.470Z,33.34
2022-08-25T15:47:25.134Z,32.97
2022-08-25T15:50:06.761Z,32.73
2022-08-25T15:52:46.510Z,32.57
2022-08-25T15:55:19.863Z,32.50
2022-08-25T15:57:50.247Z,32.29
2022-08-25T16:00:21.639Z,32.12
2022-08-25T16:02:52.807Z,31.86
2022-08-25T16:05:25.972Z,31.63
2022-08-25T16:07:56.006Z,31.26
2022-08-25T16:10:26.617Z,30.99
2022-08-25T16:12:56.583Z,30.75
2022-08-25T16:15:28.854Z,30.57
2022-08-25T16:18:03.179Z,30.33
2022-08-25T16:20:37.152Z,30.17
2022-08-25T16:23:06.886Z,29.97
2022-08-25T16:25:42.407Z,29.71
2022-08-25T16:28:18.700Z,29.53
2022-08-25T16:30:52.604Z,29.35
2022-08-25T16:33:24.272Z,29.11
2022-08-25T16:35:55.080Z,28.93
2022-08-25T16:38:24.593Z,28.72
2022-08-25T16:40:55.227Z,28.55
2022-08-25T16:43:25.559Z,28.41
2022-08-25T16:46:01.939Z,28.26
2022-08-25T16:48:33.175Z,28.18
2022-08-25T16:51:07.376Z,28.13
2022-08-25T16:53:55.204Z,28.09
2022-08-25T16:56:27.275Z,27.95
2022-08-25T16:59:00.611Z,27.85
2022-08-25T17:01:34.034Z,27.73
2022-08-25T17:04:06.364Z,27.64
2022-08-25T17:06:40.069Z,27.54
2022-08-25T17:09:13.027Z,27.44
2022-08-25T17:11:46.809Z,27.35
2022-08-25T17:14:19.852Z,27.26
2022-08-25T17:16:51.209Z,27.16
2022-08-25T17:19:23.618Z,27.08
2022-08-25T17:21:54.547Z,27.01
2022-08-25T17:24:29.386Z,26.90
2022-08-25T17:27:02.536Z,26.82
2022-08-25T17:29:32.906Z,26.74
2022-08-25T17:32:02.588Z,26.62
2022-08-25T17:34:35.607Z,26.56
2022-08-25T17:37:05.638Z,26.48
2022-08-25T17:39:35.159Z,26.41
2022-08-25T17:42:06.212Z,26.34
2022-08-25T17:44:37.466Z,26.22
2022-08-25T17:47:07.299Z,26.16
2022-08-25T17:49:38.654Z,26.08
2022-08-25T17:52:08.819Z,26.02
2022-08-25T17:54:38.365Z,25.97
2022-08-25T17:57:07.955Z,25.90
2022-08-25T17:59:38.717Z,25.80
2022-08-25T18:02:10.487Z,25.70
2022-08-25T18:04:41.934Z,25.63
2022-08-25T18:07:11.502Z,25.55
2022-08-25T18:09:41.314Z,25.44
2022-08-25T18:12:10.996Z,25.37
2022-08-25T18:14:41.471Z,25.27
2022-08-25T18:17:15.693Z,25.15
2022-08-25T18:19:52.983Z,25.00
2022-08-25T18:22:22.543Z,24.92
2022-08-25T18:24:52.458Z,24.79
2022-08-25T18:27:22.407Z,24.65
2022-08-25T18:29:53.822Z,24.51
2022-08-25T18:32:26.049Z,24.34
2022-08-25T18:34:57.123Z,24.15
2022-08-25T18:37:44.752Z,24.02
2022-08-25T18:40:24.637Z,23.82
2022-08-25T18:42:57.524Z,23.62
2022-08-25T18:45:32.906Z,23.42
2022-08-25T18:48:03.806Z,23.25
2022-08-25T18:50:39.536Z,23.03
2022-08-25T18:53:10.634Z,22.85
2022-08-25T18:55:43.250Z,22.67
2022-08-25T18:58:14.282Z,22.49
2022-08-25T19:00:45.683Z,22.35
2022-08-25T19:03:20.186Z,22.18
2022-08-25T19:05:57.259Z,22.04
2022-08-25T19:08:27.359Z,21.89
2022-08-25T19:10:56.946Z,21.75
2022-08-25T19:13:26.640Z,21.62
2022-08-25T19:15:56.378Z,21.49
2022-08-25T19:18:29.025Z,21.37
2022-08-25T19:23:29.555Z,21.19
2022-08-25T19:25:59.357Z,21.10
2022-08-25T19:28:29.174Z,20.95
2022-08-25T19:30:58.906Z,20.82
2022-08-25T19:33:42.589Z,20.73
2022-08-25T19:36:18.382Z,20.59
2022-08-25T19:38:53.349Z,20.48
2022-08-25T19:41:23.581Z,20.38
2022-08-25T19:43:56.695Z,20.32
2022-08-25T19:46:33.320Z,20.21
2022-08-25T19:49:08.098Z,20.12
2022-08-25T19:51:44.599Z,20.06
2022-08-25T19:54:18.195Z,19.99
2022-08-25T19:56:55.037Z,19.92
2022-08-25T19:59:42.391Z,19.84
2022-08-25T20:02:24.969Z,19.78
2022-08-25T20:04:59.462Z,19.73
2022-08-25T20:07:32.606Z,19.65
2022-08-25T20:10:03.768Z,19.60
2022-08-25T20:12:35.468Z,19.56
2022-08-25T20:15:06.902Z,19.51
2022-08-25T20:17:36.658Z,19.46
2022-08-25T20:20:15.665Z,19.40
2022-08-25T20:22:47.224Z,19.34
2022-08-25T20:25:22.977Z,19.30
2022-08-25T20:27:56.776Z,19.24
2022-08-25T20:30:30.716Z,19.19
2022-08-25T20:33:00.732Z,19.14
2022-08-25T20:35:30.988Z,19.09
2022-08-25T20:38:02.098Z,19.06
2022-08-25T20:40:32.498Z,18.99
2022-08-25T20:43:03.292Z,18.94
2022-08-25T20:45:33.408Z,18.90
2022-08-25T20:48:03.183Z,18.87
2022-08-25T20:50:34.626Z,18.80
2022-08-25T20:53:05.746Z,18.74
2022-08-25T20:55:43.736Z,18.69
2022-08-25T20:58:14.256Z,18.62
2022-08-25T21:00:45.005Z,18.56
2022-08-25T21:03:14.690Z,18.51
2022-08-25T21:05:44.815Z,18.45
2022-08-25T21:08:16.683Z,18.42
2022-08-25T21:10:47.791Z,18.39
2022-08-25T21:13:17.337Z,18.35
2022-08-25T21:15:48.910Z,18.30
2022-08-25T21:18:18.701Z,18.28
2022-08-25T21:20:48.201Z,18.27
2022-08-25T21:23:19.658Z,18.24
2022-08-25T21:25:49.758Z,18.21
2022-08-25T21:28:20.237Z,18.20
2022-08-25T21:30:50.786Z,18.19
2022-08-25T21:33:28.232Z,18.20
2022-08-25T21:35:57.977Z,18.20
2022-08-25T21:38:29.376Z,18.20
2022-08-25T21:41:00.555Z,18.16
2022-08-25T21:43:30.117Z,18.13
2022-08-25T21:45:59.756Z,18.08
2022-08-25T21:48:29.519Z,18.02
2022-08-25T21:51:07.347Z,17.98
2022-08-25T21:53:40.904Z,17.94
2022-08-25T21:56:16.215Z,17.91
2022-08-25T21:58:49.165Z,17.88
2022-08-25T22:01:21.225Z,17.85
2022-08-25T22:03:52.587Z,17.86
2022-08-25T22:06:23.105Z,17.83
2022-08-25T22:08:54.640Z,17.83
2022-08-25T22:11:24.472Z,17.78
2022-08-25T22:13:55.316Z,17.75
2022-08-25T22:16:28.038Z,17.73
2022-08-25T22:18:59.466Z,17.70
2022-08-25T22:21:32.677Z,17.68
2022-08-25T22:24:04.240Z,17.67
2022-08-25T22:26:35.145Z,17.64
2022-08-25T22:29:05.759Z,17.60
2022-08-25T22:31:36.945Z,17.56
2022-08-25T22:34:07.697Z,17.53
2022-08-25T22:36:39.800Z,17.49
2022-08-25T22:39:10.839Z,17.48
2022-08-25T22:41:41.644Z,17.44
2022-08-25T22:44:30.002Z,17.43
2022-08-25T22:46:59.579Z,17.38
2022-08-25T22:49:30.781Z,17.36
2022-08-25T22:52:00.422Z,17.34
2022-08-25T22:54:31.353Z,17.34
2022-08-25T22:57:06.721Z,17.32
2022-08-25T22:59:36.526Z,17.30
2022-08-25T23:02:06.542Z,17.27
2022-08-25T23:04:36.397Z,17.26
2022-08-25T23:07:11.729Z,17.22
2022-08-25T23:09:44.041Z,17.21
2022-08-25T23:12:14.193Z,17.19
2022-08-25T23:14:44.378Z,17.18
2022-08-25T23:17:14.139Z,17.17
2022-08-25T23:19:43.785Z,17.18
2022-08-25T23:22:16.327Z,17.14
2022-08-25T23:24:51.874Z,17.12
2022-08-25T23:27:23.806Z,17.12
2022-08-25T23:29:53.290Z,17.12
2022-08-25T23:32:23.190Z,17.11
2022-08-25T23:34:57.617Z,17.09
2022-08-25T23:37:27.110Z,17.07
2022-08-25T23:39:58.749Z,17.08
2022-08-25T23:42:28.544Z,17.07
2022-08-25T23:44:58.058Z,17.02
2022-08-25T23:47:27.659Z,17.01
2022-08-25T23:49:57.168Z,16.98
2022-08-25T23:52:27.298Z,16.95
2022-08-25T23:54:58.884Z,16.94
2022-08-25T23:57:28.351Z,16.92
2022-08-25T23:59:58.475Z,16.88
